createdAt,value
2016-09-11T00:00:04.686Z,0
2016-09-11T00:01:03.599Z,0
2016-09-11T00:02:03.843Z,0
2016-09-11T00:03:03.836Z,0
2016-09-11T00:04:03.761Z,0
2016-09-11T00:05:04.372Z,0
2016-09-11T00:06:03.535Z,0
2016-09-11T00:07:03.534Z,0
2016-09-11T00:08:03.867Z,0
2016-09-11T00:09:04.208Z,0
2016-09-11T00:10:04.078Z,0
2016-09-11T00:11:03.768Z,0
2016-09-11T00:12:03.582Z,0
2016-09-11T00:13:03.586Z,0
2016-09-11T00:14:03.742Z,0
2016-09-11T00:15:05.025Z,0
2016-09-11T00:16:03.621Z,0
2016-09-11T00:17:04.106Z,0
2016-09-11T00:18:03.593Z,0
2016-09-11T00:19:03.931Z,0
2016-09-11T00:20:03.578Z,0
2016-09-11T00:21:03.594Z,0
2016-09-11T00:22:03.702Z,0
2016-09-11T00:23:03.569Z,0
2016-09-11T00:24:03.900Z,0
2016-09-11T00:25:04.033Z,0
2016-09-11T00:26:03.655Z,0
2016-09-11T00:27:03.600Z,0
2016-09-11T00:28:03.745Z,0
2016-09-11T00:29:03.576Z,0
2016-09-11T00:30:03.651Z,0
2016-09-11T00:31:04.115Z,0
2016-09-11T00:32:03.713Z,0
2016-09-11T00:33:03.918Z,0
2016-09-11T00:34:04.345Z,0
2016-09-11T00:35:03.616Z,0
2016-09-11T00:36:03.638Z,0
2016-09-11T00:37:03.630Z,0
2016-09-11T00:38:03.598Z,0
2016-09-11T00:39:03.627Z,0
2016-09-11T00:40:04.246Z,0
2016-09-11T00:41:03.996Z,0
2016-09-11T00:42:03.635Z,0
2016-09-11T00:43:04.539Z,0
2016-09-11T00:44:03.672Z,0
2016-09-11T00:45:04.042Z,0
2016-09-11T00:46:03.637Z,0
2016-09-11T00:47:03.766Z,0
2016-09-11T00:48:03.672Z,0
2016-09-11T00:49:03.891Z,0
2016-09-11T00:50:05.445Z,0
2016-09-11T00:51:03.672Z,0
2016-09-11T00:52:03.669Z,0
2016-09-11T00:53:03.650Z,0
2016-09-11T00:54:03.970Z,0
2016-09-11T00:55:05.243Z,0
2016-09-11T00:56:03.671Z,0
2016-09-11T00:57:03.645Z,0
2016-09-11T00:58:03.755Z,0
2016-09-11T00:59:03.970Z,0
2016-09-11T01:00:03.690Z,0
2016-09-11T01:01:04.038Z,0
2016-09-11T01:02:03.682Z,0
2016-09-11T01:03:03.987Z,0
2016-09-11T01:04:03.750Z,0
2016-09-11T01:05:04.270Z,0
2016-09-11T01:06:03.673Z,0
2016-09-11T01:07:04.012Z,0
2016-09-11T01:08:04.088Z,0
2016-09-11T01:09:03.934Z,0
2016-09-11T01:10:03.991Z,0
2016-09-11T01:11:04.289Z,0
2016-09-11T01:12:03.713Z,0
2016-09-11T01:13:03.986Z,0
2016-09-11T01:14:03.678Z,0
2016-09-11T01:15:03.681Z,0
2016-09-11T01:16:04.110Z,0
2016-09-11T01:17:03.781Z,0
2016-09-11T01:18:03.734Z,0
2016-09-11T01:19:03.696Z,0
2016-09-11T01:20:04.685Z,0
2016-09-11T01:21:03.924Z,0
2016-09-11T01:22:03.808Z,0
2016-09-11T01:23:03.849Z,0
2016-09-11T01:24:04.782Z,0
2016-09-11T01:25:04.355Z,0
2016-09-11T01:26:04.046Z,0
2016-09-11T01:27:03.730Z,0
2016-09-11T01:28:03.730Z,0
2016-09-11T01:29:03.779Z,0
2016-09-11T01:30:04.131Z,0
2016-09-11T01:31:03.897Z,0
2016-09-11T01:32:04.072Z,0
2016-09-11T01:33:03.754Z,0
2016-09-11T01:34:04.120Z,0
2016-09-11T01:35:03.808Z,0
2016-09-11T01:36:03.768Z,0
2016-09-11T01:37:04.362Z,0
2016-09-11T01:38:04.367Z,0
2016-09-11T01:39:04.636Z,0
2016-09-11T01:40:03.743Z,0
2016-09-11T01:41:03.742Z,0
2016-09-11T01:42:04.372Z,0
2016-09-11T01:43:03.750Z,0
2016-09-11T01:44:03.832Z,0
2016-09-11T01:45:04.432Z,0
2016-09-11T01:46:04.062Z,0
2016-09-11T01:47:04.046Z,0
2016-09-11T01:48:04.057Z,0
2016-09-11T01:49:03.896Z,0
2016-09-11T01:50:04.722Z,0
2016-09-11T01:51:04.397Z,0
2016-09-11T01:52:03.979Z,0
2016-09-11T01:53:03.776Z,0
2016-09-11T01:54:04.641Z,0
2016-09-11T01:55:03.833Z,0
2016-09-11T01:56:03.758Z,0
2016-09-11T01:57:03.777Z,0
2016-09-11T01:58:04.167Z,0
2016-09-11T01:59:04.422Z,0
2016-09-11T02:00:05.021Z,0
2016-09-11T02:01:04.369Z,0
2016-09-11T02:02:04.149Z,0
2016-09-11T02:03:03.831Z,0
2016-09-11T02:04:03.790Z,0
2016-09-11T02:05:04.614Z,0
2016-09-11T02:06:03.789Z,0
2016-09-11T02:07:03.785Z,0
2016-09-11T02:08:04.081Z,0
2016-09-11T02:09:03.849Z,0
2016-09-11T02:10:05.573Z,0
2016-09-11T02:11:03.865Z,0
2016-09-11T02:12:03.833Z,0
2016-09-11T02:13:04.261Z,0
2016-09-11T02:14:04.155Z,0
2016-09-11T02:15:03.959Z,0
2016-09-11T02:16:04.248Z,0
2016-09-11T02:17:03.776Z,0
2016-09-11T02:18:03.893Z,0
2016-09-11T02:19:04.422Z,0
2016-09-11T02:20:03.800Z,0
2016-09-11T02:21:03.815Z,0
2016-09-11T02:22:03.960Z,0
2016-09-11T02:23:03.822Z,0
2016-09-11T02:24:03.830Z,0
2016-09-11T02:25:04.113Z,0
2016-09-11T02:26:03.878Z,0
2016-09-11T02:27:03.913Z,0
2016-09-11T02:28:04.105Z,0
2016-09-11T02:29:04.218Z,0
2016-09-11T02:30:04.847Z,0
2016-09-11T02:31:03.898Z,0
2016-09-11T02:32:04.092Z,0
2016-09-11T02:33:03.821Z,0
2016-09-11T02:34:04.316Z,0
2016-09-11T02:35:03.907Z,0
2016-09-11T02:36:03.823Z,0
2016-09-11T02:37:03.840Z,0
2016-09-11T02:38:03.922Z,0
2016-09-11T02:39:04.529Z,0
2016-09-11T02:40:03.894Z,0
2016-09-11T02:41:03.829Z,0
2016-09-11T02:42:04.297Z,0
2016-09-11T02:43:04.179Z,0
2016-09-11T02:44:03.855Z,0
2016-09-11T02:45:04.711Z,0
2016-09-11T02:46:04.149Z,0
2016-09-11T02:47:03.941Z,0
2016-09-11T02:48:03.865Z,0
2016-09-11T02:49:04.044Z,0
2016-09-11T02:50:04.168Z,0
2016-09-11T02:51:04.021Z,0
2016-09-11T02:52:03.928Z,0
2016-09-11T02:53:04.171Z,0
2016-09-11T02:54:04.798Z,0
2016-09-11T02:55:04.271Z,0
2016-09-11T02:56:03.946Z,0
2016-09-11T02:57:03.903Z,0
2016-09-11T02:58:03.880Z,0
2016-09-11T02:59:03.886Z,0
2016-09-11T03:00:04.369Z,0
2016-09-11T03:01:04.230Z,0
2016-09-11T03:02:03.884Z,0
2016-09-11T03:03:04.007Z,0
2016-09-11T03:04:03.943Z,0
2016-09-11T03:05:04.448Z,0
2016-09-11T03:06:04.242Z,0
2016-09-11T03:07:03.972Z,0
2016-09-11T03:08:04.190Z,0
2016-09-11T03:09:04.329Z,0
2016-09-11T03:10:04.843Z,0
2016-09-11T03:11:03.922Z,0
2016-09-11T03:12:03.891Z,0
2016-09-11T03:13:03.951Z,0
2016-09-11T03:14:04.223Z,0
2016-09-11T03:15:04.107Z,0
2016-09-11T03:16:04.005Z,0
2016-09-11T03:17:03.915Z,0
2016-09-11T03:18:04.060Z,0
2016-09-11T03:19:03.924Z,0
2016-09-11T03:20:04.162Z,0
2016-09-11T03:21:04.000Z,0
2016-09-11T03:22:03.914Z,0
2016-09-11T03:23:04.045Z,0
2016-09-11T03:24:04.309Z,0
2016-09-11T03:25:04.421Z,0
2016-09-11T03:26:03.928Z,0
2016-09-11T03:27:03.946Z,0
2016-09-11T03:28:03.945Z,0
2016-09-11T03:29:03.957Z,0
2016-09-11T03:30:05.658Z,0
2016-09-11T03:31:04.554Z,0
2016-09-11T03:32:03.989Z,0
2016-09-11T03:33:03.936Z,0
2016-09-11T03:34:03.950Z,0
2016-09-11T03:35:04.701Z,0
2016-09-11T03:36:04.269Z,0
2016-09-11T03:37:04.354Z,0
2016-09-11T03:38:04.687Z,0
2016-09-11T03:39:04.097Z,0
2016-09-11T03:40:04.314Z,0
2016-09-11T03:41:04.047Z,0
2016-09-11T03:42:03.968Z,0
2016-09-11T03:43:03.942Z,0
2016-09-11T03:44:04.758Z,0
2016-09-11T03:45:04.661Z,0
2016-09-11T03:46:04.297Z,0
2016-09-11T03:47:04.354Z,0
2016-09-11T03:48:04.342Z,0
2016-09-11T03:49:04.398Z,0
2016-09-11T03:50:04.832Z,0
2016-09-11T03:51:03.995Z,0
2016-09-11T03:52:04.139Z,0
2016-09-11T03:53:03.976Z,0
2016-09-11T03:54:04.394Z,0
2016-09-11T03:55:03.968Z,0
2016-09-11T03:56:03.991Z,0
2016-09-11T03:57:04.000Z,0
2016-09-11T03:58:04.741Z,0
2016-09-11T03:59:04.306Z,0
2016-09-11T04:00:04.597Z,0
2016-09-11T04:01:04.171Z,0
2016-09-11T04:02:04.175Z,0
2016-09-11T04:03:04.669Z,0
2016-09-11T04:04:03.974Z,0
2016-09-11T04:05:04.405Z,0
2016-09-11T04:06:04.644Z,0
2016-09-11T04:07:04.049Z,0
2016-09-11T04:08:04.186Z,0
2016-09-11T04:09:04.011Z,0
2016-09-11T04:10:04.586Z,0
2016-09-11T04:11:04.254Z,0
2016-09-11T04:12:04.402Z,0
2016-09-11T04:13:03.990Z,0
2016-09-11T04:14:04.059Z,0
2016-09-11T04:15:04.709Z,0
2016-09-11T04:16:04.045Z,0
2016-09-11T04:17:04.041Z,0
2016-09-11T04:18:04.349Z,0
2016-09-11T04:19:04.683Z,0
2016-09-11T04:20:05.073Z,0
2016-09-11T04:21:04.106Z,0
2016-09-11T04:22:04.458Z,0
2016-09-11T04:23:04.017Z,0
2016-09-11T04:24:04.005Z,0
2016-09-11T04:25:17.740Z,0
2016-09-11T04:26:05.511Z,0
2016-09-11T04:27:04.267Z,0
2016-09-11T04:28:04.030Z,0
2016-09-11T04:29:04.008Z,0
2016-09-11T04:30:04.005Z,0
2016-09-11T04:31:04.008Z,0
2016-09-11T04:32:04.254Z,0
2016-09-11T04:33:04.028Z,0
2016-09-11T04:34:04.521Z,0
2016-09-11T04:35:04.232Z,0
2016-09-11T04:36:04.032Z,0
2016-09-11T04:37:04.030Z,0
2016-09-11T04:38:04.031Z,0
2016-09-11T04:39:04.032Z,0
2016-09-11T04:40:04.029Z,0
2016-09-11T04:41:04.028Z,0
2016-09-11T04:42:04.057Z,0
2016-09-11T04:43:04.055Z,0
2016-09-11T04:44:04.360Z,0
2016-09-11T04:45:04.042Z,0
2016-09-11T04:46:04.056Z,0
2016-09-11T04:47:04.033Z,0
2016-09-11T04:48:04.038Z,0
2016-09-11T04:49:04.116Z,0
2016-09-11T04:50:04.035Z,0
2016-09-11T04:51:04.039Z,0
2016-09-11T04:52:04.048Z,5
2016-09-11T04:53:04.042Z,5
2016-09-11T04:54:04.044Z,5
2016-09-11T04:55:04.063Z,5
2016-09-11T04:56:04.041Z,5
2016-09-11T04:57:04.044Z,5
2016-09-11T04:58:04.064Z,5
2016-09-11T04:59:04.069Z,5
2016-09-11T05:00:04.954Z,10
2016-09-11T05:01:04.078Z,10
2016-09-11T05:02:04.065Z,10
2016-09-11T05:03:04.067Z,10
2016-09-11T05:04:04.069Z,10
2016-09-11T05:05:04.080Z,10
2016-09-11T05:06:04.074Z,15
2016-09-11T05:07:04.072Z,15
2016-09-11T05:08:04.089Z,15
2016-09-11T05:09:04.082Z,15
2016-09-11T05:10:04.070Z,15
2016-09-11T05:11:04.073Z,15
2016-09-11T05:12:04.071Z,20
2016-09-11T05:13:04.074Z,20
2016-09-11T05:14:04.075Z,20
2016-09-11T05:15:04.081Z,20
2016-09-11T05:16:04.075Z,25
2016-09-11T05:17:04.075Z,25
2016-09-11T05:18:04.086Z,25
2016-09-11T05:19:04.504Z,25
2016-09-11T05:20:04.077Z,25
2016-09-11T05:21:04.099Z,30
2016-09-11T05:22:04.332Z,30
2016-09-11T05:23:04.094Z,30
2016-09-11T05:24:04.419Z,30
2016-09-11T05:25:04.088Z,35
2016-09-11T05:26:04.089Z,35
2016-09-11T05:27:04.089Z,35
2016-09-11T05:28:04.089Z,40
2016-09-11T05:29:04.093Z,40
2016-09-11T05:30:04.104Z,40
2016-09-11T05:31:04.101Z,45
2016-09-11T05:32:04.103Z,45
2016-09-11T05:33:04.095Z,45
2016-09-11T05:34:04.103Z,45
2016-09-11T05:35:04.684Z,50
2016-09-11T05:36:04.140Z,50
2016-09-11T05:37:04.109Z,50
2016-09-11T05:38:04.112Z,55
2016-09-11T05:39:04.107Z,55
2016-09-11T05:40:04.144Z,55
2016-09-11T05:41:04.121Z,60
2016-09-11T05:42:04.115Z,60
2016-09-11T05:43:04.437Z,60
2016-09-11T05:44:04.125Z,65
2016-09-11T05:45:04.120Z,70
2016-09-11T05:46:04.373Z,65
2016-09-11T05:47:04.117Z,70
2016-09-11T05:48:04.454Z,70
2016-09-11T05:49:04.437Z,75
2016-09-11T05:50:04.119Z,75
2016-09-11T05:51:04.130Z,75
2016-09-11T05:52:04.141Z,75
2016-09-11T05:53:04.232Z,75
2016-09-11T05:54:04.152Z,80
2016-09-11T05:55:04.381Z,80
2016-09-11T05:56:04.145Z,80
2016-09-11T05:57:04.162Z,85
2016-09-11T05:58:04.153Z,85
2016-09-11T05:59:04.162Z,85
2016-09-11T06:00:04.160Z,85
2016-09-11T06:01:04.166Z,90
2016-09-11T06:02:04.162Z,90
2016-09-11T06:03:04.166Z,90
2016-09-11T06:04:04.176Z,95
2016-09-11T06:05:04.190Z,95
2016-09-11T06:06:04.498Z,95
2016-09-11T06:07:04.165Z,100
2016-09-11T06:08:04.166Z,100
2016-09-11T06:09:04.187Z,100
2016-09-11T06:10:04.171Z,105
2016-09-11T06:11:04.450Z,105
2016-09-11T06:12:04.715Z,105
2016-09-11T06:13:05.439Z,105
2016-09-11T06:14:04.189Z,105
2016-09-11T06:15:04.550Z,110
2016-09-11T06:16:04.206Z,110
2016-09-11T06:17:04.203Z,115
2016-09-11T06:18:04.280Z,115
2016-09-11T06:19:04.639Z,115
2016-09-11T06:20:05.144Z,120
2016-09-11T06:21:04.216Z,120
2016-09-11T06:22:04.849Z,120
2016-09-11T06:23:04.839Z,125
2016-09-11T06:24:04.236Z,125
2016-09-11T06:25:07.441Z,125
2016-09-11T06:26:04.343Z,130
2016-09-11T06:27:04.205Z,130
2016-09-11T06:28:04.788Z,135
2016-09-11T06:29:04.595Z,140
2016-09-11T06:30:05.237Z,140
2016-09-11T06:31:04.698Z,140
2016-09-11T06:32:04.680Z,140
2016-09-11T06:33:04.564Z,135
2016-09-11T06:34:04.431Z,140
2016-09-11T06:35:04.455Z,140
2016-09-11T06:36:04.567Z,145
2016-09-11T06:37:04.327Z,145
2016-09-11T06:38:04.728Z,150
2016-09-11T06:39:04.276Z,155
2016-09-11T06:40:05.124Z,160
2016-09-11T06:41:04.466Z,165
2016-09-11T06:42:04.260Z,175
2016-09-11T06:43:04.691Z,180
2016-09-11T06:44:04.589Z,185
2016-09-11T06:45:06.477Z,190
2016-09-11T06:46:04.580Z,190
2016-09-11T06:47:04.882Z,195
2016-09-11T06:48:04.704Z,195
2016-09-11T06:49:04.286Z,195
2016-09-11T06:50:04.357Z,195
2016-09-11T06:51:04.303Z,200
2016-09-11T06:52:04.445Z,200
2016-09-11T06:53:04.290Z,200
2016-09-11T06:54:04.351Z,200
2016-09-11T06:55:05.289Z,200
2016-09-11T06:56:04.630Z,200
2016-09-11T06:57:04.681Z,195
2016-09-11T06:58:04.847Z,185
2016-09-11T06:59:04.465Z,185
2016-09-11T07:00:06.379Z,195
2016-09-11T07:01:04.361Z,185
2016-09-11T07:02:04.464Z,185
2016-09-11T07:03:04.385Z,190
2016-09-11T07:04:04.712Z,195
2016-09-11T07:05:04.739Z,195
2016-09-11T07:06:04.705Z,190
2016-09-11T07:07:04.693Z,195
2016-09-11T07:08:04.469Z,195
2016-09-11T07:09:04.705Z,200
2016-09-11T07:10:04.817Z,200
2016-09-11T07:11:04.489Z,195
2016-09-11T07:12:04.429Z,195
2016-09-11T07:13:04.714Z,210
2016-09-11T07:14:04.768Z,220
2016-09-11T07:15:04.753Z,220
2016-09-11T07:16:04.964Z,220
2016-09-11T07:17:04.477Z,230
2016-09-11T07:18:04.637Z,225
2016-09-11T07:19:05.139Z,230
2016-09-11T07:20:05.032Z,235
2016-09-11T07:21:04.830Z,240
2016-09-11T07:22:04.873Z,235
2016-09-11T07:23:04.753Z,235
2016-09-11T07:24:04.491Z,235
2016-09-11T07:25:05.115Z,240
2016-09-11T07:26:04.799Z,235
2016-09-11T07:27:04.765Z,235
2016-09-11T07:28:04.771Z,240
2016-09-11T07:29:04.470Z,245
2016-09-11T07:30:06.537Z,240
2016-09-11T07:31:04.737Z,240
2016-09-11T07:32:04.478Z,245
2016-09-11T07:33:04.852Z,250
2016-09-11T07:34:05.105Z,245
2016-09-11T07:35:06.158Z,245
2016-09-11T07:36:04.589Z,245
2016-09-11T07:37:04.737Z,245
2016-09-11T07:38:07.561Z,245
2016-09-11T07:39:04.714Z,250
2016-09-11T07:40:05.566Z,245
2016-09-11T07:41:04.858Z,240
2016-09-11T07:42:04.998Z,240
2016-09-11T07:43:04.915Z,235
2016-09-11T07:44:05.179Z,235
2016-09-11T07:45:05.565Z,235
2016-09-11T07:46:04.916Z,235
2016-09-11T07:47:04.946Z,235
2016-09-11T07:48:04.949Z,235
2016-09-11T07:49:04.625Z,235
2016-09-11T07:50:04.978Z,235
2016-09-11T07:51:04.665Z,230
2016-09-11T07:52:04.617Z,225
2016-09-11T07:53:04.978Z,225
2016-09-11T07:54:04.985Z,225
2016-09-11T07:55:04.995Z,225
2016-09-11T07:56:04.804Z,225
2016-09-11T07:57:05.833Z,230
2016-09-11T07:58:04.740Z,235
2016-09-11T07:59:05.317Z,240
2016-09-11T08:00:05.626Z,240
2016-09-11T08:01:04.730Z,240
2016-09-11T08:02:04.810Z,240
2016-09-11T08:03:05.430Z,245
2016-09-11T08:04:05.073Z,240
2016-09-11T08:05:05.504Z,245
2016-09-11T08:06:05.266Z,240
2016-09-11T08:07:05.038Z,240
2016-09-11T08:08:05.737Z,240
2016-09-11T08:09:04.835Z,240
2016-09-11T08:10:04.878Z,240
2016-09-11T08:11:05.740Z,245
2016-09-11T08:12:04.761Z,240
2016-09-11T08:13:05.170Z,240
2016-09-11T08:14:05.637Z,245
2016-09-11T08:15:04.806Z,240
2016-09-11T08:16:04.893Z,240
2016-09-11T08:17:04.863Z,245
2016-09-11T08:18:05.165Z,240
2016-09-11T08:19:04.939Z,245
2016-09-11T08:20:06.442Z,245
2016-09-11T08:21:05.251Z,245
2016-09-11T08:22:04.867Z,245
2016-09-11T08:23:04.890Z,245
2016-09-11T08:24:04.857Z,245
2016-09-11T08:25:05.305Z,245
2016-09-11T08:26:05.664Z,245
2016-09-11T08:27:04.970Z,240
2016-09-11T08:28:04.925Z,240
2016-09-11T08:29:05.017Z,240
2016-09-11T08:30:06.865Z,240
2016-09-11T08:31:05.445Z,240
2016-09-11T08:32:04.912Z,240
2016-09-11T08:33:05.255Z,240
2016-09-11T08:34:05.316Z,235
2016-09-11T08:35:05.245Z,235
2016-09-11T08:36:04.986Z,235
2016-09-11T08:37:04.988Z,235
2016-09-11T08:38:05.335Z,235
2016-09-11T08:39:04.959Z,235
2016-09-11T08:40:05.117Z,235
2016-09-11T08:41:04.988Z,235
2016-09-11T08:42:05.284Z,230
2016-09-11T08:43:04.991Z,235
2016-09-11T08:44:05.031Z,235
2016-09-11T08:45:04.991Z,235
2016-09-11T08:46:05.700Z,235
2016-09-11T08:47:05.021Z,230
2016-09-11T08:48:05.006Z,230
2016-09-11T08:49:05.024Z,230
2016-09-11T08:50:05.066Z,230
2016-09-11T08:51:05.474Z,230
2016-09-11T08:52:05.484Z,230
2016-09-11T08:53:05.088Z,230
2016-09-11T08:54:05.444Z,230
2016-09-11T08:55:05.662Z,225
2016-09-11T08:56:05.130Z,225
2016-09-11T08:57:05.689Z,220
2016-09-11T08:58:05.516Z,205
2016-09-11T08:59:05.112Z,190
2016-09-11T09:00:05.501Z,185
2016-09-11T09:01:05.251Z,190
2016-09-11T09:02:05.151Z,190
2016-09-11T09:03:05.128Z,190
2016-09-11T09:04:05.512Z,190
2016-09-11T09:05:06.212Z,185
2016-09-11T09:06:05.119Z,195
2016-09-11T09:07:05.116Z,205
2016-09-11T09:08:05.821Z,215
2016-09-11T09:09:05.369Z,225
2016-09-11T09:10:05.198Z,225
2016-09-11T09:11:05.488Z,225
2016-09-11T09:12:05.479Z,225
2016-09-11T09:13:05.823Z,225
2016-09-11T09:14:05.128Z,225
2016-09-11T09:15:05.837Z,215
2016-09-11T09:16:05.365Z,235
2016-09-11T09:17:05.159Z,230
2016-09-11T09:18:05.794Z,240
2016-09-11T09:19:06.111Z,245
2016-09-11T09:20:05.500Z,250
2016-09-11T09:21:05.279Z,250
2016-09-11T09:22:05.210Z,250
2016-09-11T09:23:05.936Z,250
2016-09-11T09:24:05.832Z,255
2016-09-11T09:25:05.356Z,260
2016-09-11T09:26:06.170Z,255
2016-09-11T09:27:05.516Z,255
2016-09-11T09:28:05.534Z,250
2016-09-11T09:29:05.287Z,250
2016-09-11T09:30:05.605Z,245
2016-09-11T09:31:05.226Z,245
2016-09-11T09:32:05.880Z,240
2016-09-11T09:33:05.796Z,240
2016-09-11T09:34:05.470Z,240
2016-09-11T09:35:05.546Z,240
2016-09-11T09:36:05.254Z,235
2016-09-11T09:37:08.277Z,230
2016-09-11T09:38:05.469Z,230
2016-09-11T09:39:06.447Z,225
2016-09-11T09:40:05.332Z,225
2016-09-11T09:41:05.405Z,225
2016-09-11T09:42:05.374Z,225
2016-09-11T09:43:05.930Z,225
2016-09-11T09:44:05.318Z,225
2016-09-11T09:45:05.467Z,230
2016-09-11T09:46:05.877Z,225
2016-09-11T09:47:05.339Z,225
2016-09-11T09:48:06.464Z,225
2016-09-11T09:49:05.401Z,220
2016-09-11T09:50:05.377Z,220
2016-09-11T09:51:05.727Z,220
2016-09-11T09:52:05.652Z,220
2016-09-11T09:53:05.381Z,220
2016-09-11T09:54:05.415Z,220
2016-09-11T09:55:05.736Z,220
2016-09-11T09:56:05.574Z,220
2016-09-11T09:57:06.113Z,220
2016-09-11T09:58:05.693Z,220
2016-09-11T09:59:05.768Z,220
2016-09-11T10:00:05.474Z,220
2016-09-11T10:01:05.727Z,215
2016-09-11T10:02:05.684Z,215
2016-09-11T10:03:05.878Z,215
2016-09-11T10:04:05.744Z,215
2016-09-11T10:05:05.425Z,220
2016-09-11T10:06:05.434Z,220
2016-09-11T10:07:05.483Z,215
2016-09-11T10:08:05.759Z,215
2016-09-11T10:09:05.880Z,215
2016-09-11T10:10:05.533Z,215
2016-09-11T10:11:05.437Z,215
2016-09-11T10:12:05.422Z,215
2016-09-11T10:13:05.434Z,215
2016-09-11T10:14:05.661Z,215
2016-09-11T10:15:06.680Z,215
2016-09-11T10:16:05.799Z,215
2016-09-11T10:17:05.885Z,215
2016-09-11T10:18:05.829Z,215
2016-09-11T10:19:05.574Z,215
2016-09-11T10:20:06.280Z,210
2016-09-11T10:21:05.851Z,215
2016-09-11T10:22:05.619Z,215
2016-09-11T10:23:05.570Z,210
2016-09-11T10:24:05.737Z,210
2016-09-11T10:25:07.812Z,210
2016-09-11T10:26:05.825Z,210
2016-09-11T10:27:05.527Z,210
2016-09-11T10:28:05.536Z,210
2016-09-11T10:29:05.541Z,210
2016-09-11T10:30:07.774Z,210
2016-09-11T10:31:05.879Z,210
2016-09-11T10:32:05.959Z,210
2016-09-11T10:33:05.539Z,210
2016-09-11T10:34:05.880Z,210
2016-09-11T10:35:05.583Z,210
2016-09-11T10:36:05.559Z,210
2016-09-11T10:37:05.750Z,210
2016-09-11T10:38:06.076Z,210
2016-09-11T10:39:05.688Z,210
2016-09-11T10:40:06.370Z,210
2016-09-11T10:41:05.624Z,205
2016-09-11T10:42:05.912Z,205
2016-09-11T10:43:05.712Z,205
2016-09-11T10:44:05.940Z,205
2016-09-11T10:45:05.871Z,205
2016-09-11T10:46:06.028Z,205
2016-09-11T10:47:05.975Z,205
2016-09-11T10:48:06.832Z,205
2016-09-11T10:49:05.974Z,210
2016-09-11T10:50:05.664Z,205
2016-09-11T10:51:05.968Z,205
2016-09-11T10:52:05.887Z,205
2016-09-11T10:53:05.696Z,205
2016-09-11T10:54:05.746Z,205
2016-09-11T10:55:06.624Z,205
2016-09-11T10:56:06.036Z,205
2016-09-11T10:57:05.927Z,205
2016-09-11T10:58:06.411Z,205
2016-09-11T10:59:06.131Z,205
2016-09-11T11:00:06.191Z,205
2016-09-11T11:01:05.787Z,200
2016-09-11T11:02:06.022Z,205
2016-09-11T11:03:05.743Z,205
2016-09-11T11:04:11.903Z,205
2016-09-11T11:05:06.073Z,205
2016-09-11T11:06:06.546Z,205
2016-09-11T11:07:05.727Z,205
2016-09-11T11:08:06.002Z,205
2016-09-11T11:09:05.961Z,205
2016-09-11T11:10:06.059Z,200
2016-09-11T11:11:05.783Z,200
2016-09-11T11:12:06.621Z,200
2016-09-11T11:13:05.739Z,200
2016-09-11T11:14:05.767Z,200
2016-09-11T11:15:07.589Z,200
2016-09-11T11:16:06.354Z,200
2016-09-11T11:17:05.766Z,200
2016-09-11T11:18:07.024Z,200
2016-09-11T11:19:06.049Z,200
2016-09-11T11:20:05.969Z,200
2016-09-11T11:21:05.851Z,200
2016-09-11T11:22:06.059Z,200
2016-09-11T11:23:05.854Z,200
2016-09-11T11:24:06.526Z,200
2016-09-11T11:25:10.639Z,200
2016-09-11T11:26:06.034Z,200
2016-09-11T11:27:05.824Z,200
2016-09-11T11:28:05.905Z,200
2016-09-11T11:29:05.900Z,200
2016-09-11T11:30:06.279Z,200
2016-09-11T11:31:06.050Z,200
2016-09-11T11:32:06.578Z,200
2016-09-11T11:33:07.037Z,200
2016-09-11T11:34:06.249Z,200
2016-09-11T11:35:07.599Z,205
2016-09-11T11:36:05.871Z,200
2016-09-11T11:37:05.918Z,195
2016-09-11T11:38:05.966Z,195
2016-09-11T11:39:06.027Z,195
2016-09-11T11:40:07.565Z,195
2016-09-11T11:41:06.585Z,195
2016-09-11T11:42:06.121Z,195
2016-09-11T11:43:06.596Z,195
2016-09-11T11:44:06.292Z,195
2016-09-11T11:45:07.837Z,195
2016-09-11T11:46:06.033Z,195
2016-09-11T11:47:08.262Z,195
2016-09-11T11:48:06.137Z,195
2016-09-11T11:49:06.937Z,195
2016-09-11T11:50:07.083Z,195
2016-09-11T11:51:06.086Z,195
2016-09-11T11:52:06.241Z,200
2016-09-11T11:53:06.303Z,200
2016-09-11T11:54:05.991Z,195
2016-09-11T11:55:06.509Z,195
2016-09-11T11:56:06.310Z,195
2016-09-11T11:57:06.013Z,195
2016-09-11T11:58:06.340Z,195
2016-09-11T11:59:06.398Z,200
2016-09-11T12:00:08.161Z,195
2016-09-11T12:01:06.639Z,195
2016-09-11T12:02:06.033Z,195
2016-09-11T12:03:06.668Z,195
2016-09-11T12:04:06.384Z,195
2016-09-11T12:05:06.408Z,195
2016-09-11T12:06:06.191Z,195
2016-09-11T12:07:06.712Z,195
2016-09-11T12:08:06.435Z,195
2016-09-11T12:09:06.135Z,195
2016-09-11T12:10:06.698Z,195
2016-09-11T12:11:06.094Z,195
2016-09-11T12:12:06.107Z,200
2016-09-11T12:13:06.201Z,195
2016-09-11T12:14:06.237Z,200
2016-09-11T12:15:06.837Z,195
2016-09-11T12:16:06.529Z,195
2016-09-11T12:17:06.538Z,195
2016-09-11T12:18:06.607Z,190
2016-09-11T12:19:06.184Z,190
2016-09-11T12:20:06.960Z,190
2016-09-11T12:21:06.476Z,190
2016-09-11T12:22:06.810Z,190
2016-09-11T12:23:06.639Z,190
2016-09-11T12:24:08.047Z,190
2016-09-11T12:25:07.170Z,190
2016-09-11T12:26:07.940Z,190
2016-09-11T12:27:06.474Z,190
2016-09-11T12:28:06.444Z,190
2016-09-11T12:29:06.203Z,190
2016-09-11T12:30:06.935Z,190
2016-09-11T12:31:06.643Z,190
2016-09-11T12:32:06.743Z,190
2016-09-11T12:33:06.558Z,190
2016-09-11T12:34:06.407Z,190
2016-09-11T12:35:06.740Z,190
2016-09-11T12:36:06.599Z,190
2016-09-11T12:37:06.237Z,190
2016-09-11T12:38:06.588Z,190
2016-09-11T12:39:06.287Z,190
2016-09-11T12:40:06.962Z,190
2016-09-11T12:41:06.566Z,190
2016-09-11T12:42:06.369Z,190
2016-09-11T12:43:06.561Z,190
2016-09-11T12:44:06.534Z,185
2016-09-11T12:45:06.844Z,185
2016-09-11T12:46:06.578Z,185
2016-09-11T12:47:07.205Z,185
2016-09-11T12:48:06.534Z,185
2016-09-11T12:49:06.351Z,185
2016-09-11T12:50:07.417Z,185
2016-09-11T12:51:06.395Z,185
2016-09-11T12:52:06.651Z,185
2016-09-11T12:53:06.316Z,185
2016-09-11T12:54:06.877Z,185
2016-09-11T12:55:06.856Z,185
2016-09-11T12:56:06.647Z,185
2016-09-11T12:57:06.327Z,185
2016-09-11T12:58:06.710Z,190
2016-09-11T12:59:06.629Z,180
2016-09-11T13:00:07.016Z,180
2016-09-11T13:01:06.693Z,180
2016-09-11T13:02:06.891Z,180
2016-09-11T13:03:06.798Z,180
2016-09-11T13:04:06.484Z,180
2016-09-11T13:05:07.501Z,180
2016-09-11T13:06:06.371Z,180
2016-09-11T13:07:06.929Z,180
2016-09-11T13:08:06.462Z,180
2016-09-11T13:09:06.471Z,180
2016-09-11T13:10:06.854Z,180
2016-09-11T13:11:06.406Z,180
2016-09-11T13:12:07.105Z,180
2016-09-11T13:13:06.836Z,180
2016-09-11T13:14:09.011Z,180
2016-09-11T13:15:07.149Z,175
2016-09-11T13:16:07.133Z,175
2016-09-11T13:17:06.484Z,175
2016-09-11T13:18:07.019Z,175
2016-09-11T13:19:06.540Z,175
2016-09-11T13:20:06.696Z,180
2016-09-11T13:21:06.632Z,175
2016-09-11T13:22:08.234Z,175
2016-09-11T13:23:06.599Z,175
2016-09-11T13:24:07.163Z,175
2016-09-11T13:25:07.224Z,175
2016-09-11T13:26:06.657Z,175
2016-09-11T13:27:06.543Z,175
2016-09-11T13:28:06.838Z,175
2016-09-11T13:29:06.962Z,175
2016-09-11T13:30:07.387Z,175
2016-09-11T13:31:06.921Z,175
2016-09-11T13:32:06.539Z,175
2016-09-11T13:33:06.517Z,175
2016-09-11T13:34:07.300Z,175
2016-09-11T13:35:07.390Z,175
2016-09-11T13:36:06.938Z,175
2016-09-11T13:37:06.570Z,175
2016-09-11T13:38:06.670Z,175
2016-09-11T13:39:07.176Z,175
2016-09-11T13:40:06.931Z,175
2016-09-11T13:41:06.944Z,175
2016-09-11T13:42:06.901Z,175
2016-09-11T13:43:06.667Z,170
2016-09-11T13:44:06.937Z,175
2016-09-11T13:45:07.336Z,175
2016-09-11T13:46:07.162Z,175
2016-09-11T13:47:06.962Z,175
2016-09-11T13:48:06.733Z,175
2016-09-11T13:49:06.967Z,175
2016-09-11T13:50:06.973Z,175
2016-09-11T13:51:06.720Z,170
2016-09-11T13:52:06.760Z,170
2016-09-11T13:53:06.933Z,170
2016-09-11T13:54:07.033Z,170
2016-09-11T13:55:07.154Z,170
2016-09-11T13:56:06.662Z,170
2016-09-11T13:57:07.202Z,170
2016-09-11T13:58:07.109Z,170
2016-09-11T13:59:07.195Z,170
2016-09-11T14:00:07.239Z,170
2016-09-11T14:01:07.174Z,170
2016-09-11T14:02:06.906Z,170
2016-09-11T14:03:07.314Z,170
2016-09-11T14:04:07.490Z,170
2016-09-11T14:05:06.973Z,170
2016-09-11T14:06:07.599Z,170
2016-09-11T14:07:06.888Z,170
2016-09-11T14:08:07.193Z,170
2016-09-11T14:09:06.788Z,170